Time;durP1;ratioP1;P1;durP2;ratioP2;P2;SDS_P1;SDS_P2;PMS_P1;PMS_P2;Temp;Humidity;BMP_temperature;BMP_pressure;BME280_temperature;BME280_humidity;BME280_pressure;Samples;Min_cycle;Max_cycle;Signal;HPM_P1;HPM_P2
2022/07/22 00:00:32;;;;;;;6.00;4.40;;;;;;;17.70;82.59;99215.89;109212;1274;140160;-59
2022/07/22 00:02:58;;;;;;;6.30;4.80;;;;;;;17.67;82.68;99216.77;109355;1274;22715;-59
2022/07/22 00:05:25;;;;;;;6.20;4.70;;;;;;;17.64;82.89;99216.50;109358;1274;22433;-59
2022/07/22 00:07:52;;;;;;;5.10;4.30;;;;;;;17.60;83.04;99217.95;109349;1274;138893;-59
2022/07/22 00:10:19;;;;;;;6.80;5.10;;;;;;;17.58;83.20;99224.13;109491;1274;22589;-59
2022/07/22 00:12:46;;;;;;;4.90;4.10;;;;;;;17.56;83.42;99224.30;109312;1274;138035;-59
2022/07/22 00:15:14;;;;;;;6.10;4.90;;;;;;;17.51;83.65;99223.58;109502;1274;22479;-59
2022/07/22 00:17:40;;;;;;;5.40;4.70;;;;;;;17.48;83.77;99231.73;109503;1274;22449;-59
2022/07/22 00:20:08;;;;;;;5.50;4.40;;;;;;;17.44;83.93;99227.34;109120;1274;139534;-59
2022/07/22 00:22:35;;;;;;;7.80;4.90;;;;;;;17.42;84.09;99229.85;109426;1274;22466;-59
2022/07/22 00:25:02;;;;;;;8.50;5.00;;;;;;;17.39;84.18;99229.63;109223;1275;138441;-59
2022/07/22 00:27:29;;;;;;;7.70;5.00;;;;;;;17.37;84.22;99230.28;109401;1274;22436;-59
2022/07/22 00:29:55;;;;;;;4.80;4.30;;;;;;;17.33;84.35;99231.34;109214;1274;138142;-59
2022/07/22 00:32:22;;;;;;;5.20;4.40;;;;;;;17.29;84.39;99232.78;109372;1273;22461;-59
2022/07/22 00:34:49;;;;;;;5.60;4.40;;;;;;;17.25;84.37;99231.46;109311;1273;22262;-59
2022/07/22 00:37:16;;;;;;;7.10;5.30;;;;;;;17.25;84.43;99237.04;109270;1273;138202;-59
2022/07/22 00:39:43;;;;;;;6.10;4.70;;;;;;;17.22;84.43;99235.77;109242;1274;22483;-59
2022/07/22 00:42:10;;;;;;;5.20;4.50;;;;;;;17.19;84.48;99232.52;109226;1273;138778;-60
2022/07/22 00:44:36;;;;;;;5.40;4.80;;;;;;;17.16;84.46;99230.08;109393;1273;22675;-59
2022/07/22 00:47:06;;;;;;;6.80;4.50;;;;;;;17.13;84.47;99229.83;109401;1273;23167;-60
2022/07/22 00:49:33;;;;;;;6.60;4.50;;;;;;;17.09;84.45;99233.48;109314;1274;138264;-59
2022/07/22 00:52:00;;;;;;;8.70;4.90;;;;;;;17.06;84.41;99233.21;109277;1274;22431;-59
2022/07/22 00:54:27;;;;;;;5.50;4.50;;;;;;;17.04;84.40;99237.65;109227;1273;140052;-59
2022/07/22 00:56:55;;;;;;;9.40;4.30;;;;;;;17.01;84.48;99233.55;109351;1273;22439;-59
2022/07/22 00:59:22;;;;;;;8.10;5.10;;;;;;;16.98;84.46;99233.77;109399;1273;22500;-59
2022/07/22 01:01:49;;;;;;;5.30;4.50;;;;;;;16.96;84.55;99237.13;109296;1274;138344;-59
2022/07/22 01:04:16;;;;;;;4.80;4.30;;;;;;;16.93;84.54;99230.74;109418;1273;22581;-59
2022/07/22 01:06:44;;;;;;;6.00;4.40;;;;;;;16.92;84.56;99229.52;109319;1273;138914;-59
2022/07/22 01:09:12;;;;;;;8.70;5.00;;;;;;;16.92;84.61;99230.42;109439;1273;22545;-60
2022/07/22 01:11:40;;;;;;;7.00;4.40;;;;;;;16.90;84.61;99227.42;109446;1273;22471;-60
2022/07/22 01:14:07;;;;;;;6.30;4.60;;;;;;;16.89;84.53;99228.16;109262;1274;142103;-59
2022/07/22 01:16:34;;;;;;;7.00;4.50;;;;;;;16.87;84.60;99229.31;109337;1273;23360;-59
2022/07/22 01:19:01;;;;;;;10.20;5.00;;;;;;;16.85;84.74;99229.20;109171;1273;139127;-60
2022/07/22 01:21:28;;;;;;;6.10;4.00;;;;;;;16.84;84.88;99234.23;109422;1273;22566;-60
2022/07/22 01:23:55;;;;;;;7.20;5.00;;;;;;;16.82;85.04;99235.15;109212;1274;138120;-59
2022/07/22 01:26:22;;;;;;;9.30;4.60;;;;;;;16.79;85.00;99234.59;109493;1273;22496;-60
2022/07/22 01:28:49;;;;;;;6.00;4.70;;;;;;;16.77;85.03;99236.34;109339;1274;23221;-59
2022/07/22 01:31:16;;;;;;;5.10;4.50;;;;;;;16.76;85.13;99231.30;109320;1273;138252;-60
2022/07/22 01:33:43;;;;;;;6.30;4.70;;;;;;;16.75;85.03;99229.84;109386;1274;22498;-60
2022/07/22 01:36:10;;;;;;;9.20;4.30;;;;;;;16.73;85.17;99233.95;109347;1274;139288;-60
2022/07/22 01:38:37;;;;;;;4.80;4.40;;;;;;;16.73;85.17;99233.90;109288;1274;23417;-60
2022/07/22 01:41:04;;;;;;;4.70;4.20;;;;;;;16.72;85.17;99235.26;109392;1274;23326;-60
2022/07/22 01:43:31;;;;;;;7.70;4.70;;;;;;;16.71;85.26;99239.35;109213;1274;138205;-60
2022/07/22 01:45:58;;;;;;;8.70;4.60;;;;;;;16.68;85.43;99239.94;109329;1274;22510;-60
2022/07/22 01:48:26;;;;;;;5.70;4.60;;;;;;;16.66;85.52;99243.98;109253;1274;138386;-60
2022/07/22 01:50:53;;;;;;;6.00;4.10;;;;;;;16.65;85.67;99245.77;109352;1274;22452;-61
2022/07/22 01:53:20;;;;;;;7.00;4.20;;;;;;;16.64;85.79;99249.70;109382;1274;22456;-60
2022/07/22 01:55:47;;;;;;;6.40;4.50;;;;;;;16.61;85.85;99246.63;109231;1274;138925;-59
2022/07/22 01:58:15;;;;;;;6.50;4.80;;;;;;;16.59;86.06;99247.64;109315;1274;22549;-59
2022/07/22 02:00:42;;;;;;;6.60;4.60;;;;;;;16.58;86.14;99248.36;109222;1274;139819;-59
2022/07/22 02:03:10;;;;;;;5.30;4.00;;;;;;;16.57;86.28;99250.20;109456;1274;22415;-59
2022/07/22 02:05:37;;;;;;;13.00;4.80;;;;;;;16.56;86.42;99251.25;109455;1273;22478;-59
2022/07/22 02:08:09;;;;;;;8.10;4.90;;;;;;;16.55;86.47;99250.23;109274;1274;138035;-59
2022/07/22 02:10:54;;;;;;;8.50;4.80;;;;;;;16.55;86.54;99246.92;109500;1273;22548;-60
2022/07/22 02:13:21;;;;;;;6.80;5.20;;;;;;;16.55;86.53;99249.73;109254;1274;138294;-60
2022/07/22 02:15:48;;;;;;;7.20;5.10;;;;;;;16.54;86.58;99251.73;109289;1274;22593;-59
2022/07/22 02:18:17;;;;;;;7.30;4.80;;;;;;;16.53;86.58;99254.27;109153;1274;138772;-59
2022/07/22 02:20:44;;;;;;;6.10;4.50;;;;;;;16.52;86.56;99257.54;109254;1274;23589;-60
2022/07/22 02:23:11;;;;;;;9.20;5.50;;;;;;;16.51;86.53;99261.40;109431;1273;22468;-60
2022/07/22 02:25:39;;;;;;;8.10;4.50;;;;;;;16.50;86.47;99255.04;109346;1273;138535;-59
2022/07/22 02:28:06;;;;;;;5.60;4.50;;;;;;;16.50;86.50;99253.39;109312;1274;22559;-61
2022/07/22 02:30:34;;;;;;;7.50;5.10;;;;;;;16.50;86.40;99261.15;109182;1274;138413;-61
2022/07/22 02:33:01;;;;;;;11.00;4.60;;;;;;;16.48;86.44;99263.48;109449;1274;22611;-60
2022/07/22 02:35:28;;;;;;;8.50;4.40;;;;;;;16.43;86.30;99268.38;109351;1274;22477;-59
2022/07/22 02:37:57;;;;;;;6.30;4.80;;;;;;;16.40;86.45;99274.31;109234;1274;138041;-61
2022/07/22 02:40:24;;;;;;;5.70;5.10;;;;;;;16.35;86.54;99278.92;109325;1274;23512;-60
2022/07/22 02:42:51;;;;;;;5.80;4.90;;;;;;;16.29;86.79;99279.36;109224;1274;139308;-60
2022/07/22 02:45:18;;;;;;;9.90;5.30;;;;;;;16.24;87.06;99278.23;109315;1274;23310;-61
2022/07/22 02:47:49;;;;;;;9.80;4.80;;;;;;;16.25;87.36;99284.33;109160;1274;140036;-61
2022/07/22 02:50:16;;;;;;;6.80;5.60;;;;;;;16.23;87.61;99288.41;109336;1274;22456;-61
2022/07/22 02:52:43;;;;;;;7.20;5.60;;;;;;;16.23;87.89;99281.32;109364;1274;23386;-60
2022/07/22 02:55:10;;;;;;;6.40;5.40;;;;;;;16.21;88.07;99278.10;109315;1274;139188;-60
2022/07/22 02:57:38;;;;;;;11.10;6.10;;;;;;;16.19;88.38;99279.34;109436;1274;22476;-60
2022/07/22 03:00:08;;;;;;;7.10;6.10;;;;;;;16.17;88.67;99282.90;109272;1274;139118;-60
2022/07/22 03:02:35;;;;;;;9.90;5.40;;;;;;;16.17;88.93;99281.80;109362;1274;22559;-60
2022/07/22 03:05:03;;;;;;;9.10;5.80;;;;;;;16.20;89.13;99287.57;109465;1273;22498;-60
2022/07/22 03:07:30;;;;;;;10.30;6.30;;;;;;;16.23;89.28;99287.26;109325;1274;139201;-59
2022/07/22 03:09:58;;;;;;;9.20;5.40;;;;;;;16.23;89.34;99287.70;109444;1272;22608;-60
2022/07/22 03:12:29;;;;;;;8.20;5.60;;;;;;;16.25;89.46;99291.06;109173;1274;138463;-60
2022/07/22 03:14:56;;;;;;;10.60;6.30;;;;;;;16.29;89.52;99293.77;109229;1274;22507;-60
2022/07/22 03:17:23;;;;;;;9.70;6.30;;;;;;;16.31;89.64;99297.33;109423;1274;22495;-60
2022/07/22 03:19:49;;;;;;;9.20;6.30;;;;;;;16.31;89.76;99291.29;109369;1273;138277;-60
2022/07/22 03:22:17;;;;;;;8.30;6.40;;;;;;;16.33;89.80;99288.30;109346;1274;22610;-61
2022/07/22 03:24:44;;;;;;;10.80;6.10;;;;;;;16.33;89.96;99282.69;109356;1273;139198;-60
2022/07/22 03:27:10;;;;;;;9.50;5.70;;;;;;;16.35;90.15;99283.09;109518;1273;23248;-60
2022/07/22 03:29:37;;;;;;;10.10;6.50;;;;;;;16.36;90.20;99285.32;109362;1273;22510;-61
2022/07/22 03:32:04;;;;;;;7.70;6.10;;;;;;;16.39;90.27;99292.38;109314;1273;137982;-61
2022/07/22 03:34:38;;;;;;;11.90;6.10;;;;;;;16.42;90.29;99291.89;109406;1274;22611;-61
2022/07/22 03:37:06;;;;;;;7.60;5.80;;;;;;;16.45;90.18;99287.96;109234;1274;138419;-61
2022/07/22 03:39:33;;;;;;;9.00;5.80;;;;;;;16.48;90.14;99284.06;109251;1274;22525;-61
2022/07/22 03:42:00;;;;;;;12.60;5.90;;;;;;;16.51;90.07;99283.91;109240;1274;139402;-61
2022/07/22 03:44:27;;;;;;;7.80;6.20;;;;;;;16.54;90.00;99285.02;109316;1273;22500;-61
2022/07/22 03:46:54;;;;;;;8.40;6.10;;;;;;;16.57;89.96;99287.83;106277;1275;22613;-60
2022/07/22 03:49:21;;;;;;;11.20;5.70;;;;;;;16.60;89.89;99286.42;104930;1273;139826;-60
2022/07/22 03:51:48;;;;;;;8.60;5.90;;;;;;;16.62;89.69;99290.61;105197;1275;22645;-60
2022/07/22 03:54:15;;;;;;;12.00;6.50;;;;;;;16.65;89.75;99283.63;105009;1273;138263;-61
2022/07/22 03:56:42;;;;;;;8.00;5.90;;;;;;;16.67;89.55;99285.26;105165;1274;22662;-60
2022/07/22 03:59:09;;;;;;;8.00;6.10;;;;;;;16.68;89.46;99286.92;105075;1274;22601;-61
2022/07/22 04:01:36;;;;;;;8.40;6.20;;;;;;;16.70;89.34;99292.90;105040;1273;139237;-61
2022/07/22 04:04:04;;;;;;;10.20;5.40;;;;;;;16.72;89.24;99292.65;105090;1276;22756;-60
2022/07/22 04:06:35;;;;;;;5.90;5.20;;;;;;;16.74;89.18;99297.58;109204;1274;139008;-59
2022/07/22 04:09:17;;;;;;;11.10;5.70;;;;;;;16.79;89.26;99298.48;109430;1274;22487;-60
2022/07/22 04:11:44;;;;;;;9.40;6.00;;;;;;;16.83;89.20;99308.33;109403;1274;23477;-60
2022/07/22 04:14:11;;;;;;;6.30;5.00;;;;;;;16.86;88.91;99307.17;109332;1274;22408;-60
2022/07/22 04:16:38;;;;;;;6.80;4.90;;;;;;;16.88;88.33;99307.38;109489;1273;23115;-59
2022/07/22 04:19:08;;;;;;;8.80;5.80;;;;;;;16.90;88.12;99310.44;109238;1273;138365;-59
2022/07/22 04:21:55;;;;;;;10.00;5.70;;;;;;;16.92;87.91;99311.21;109431;1274;22462;-60
2022/07/22 04:24:24;;;;;;;6.90;5.50;;;;;;;16.94;87.54;99301.60;109310;1273;139407;-59
2022/07/22 04:26:51;;;;;;;9.00;6.30;;;;;;;16.95;87.25;99305.21;109521;1273;22531;-60
2022/07/22 04:29:18;;;;;;;7.70;5.60;;;;;;;16.97;87.05;99306.30;109515;1273;22525;-59
2022/07/22 04:31:45;;;;;;;8.10;5.70;;;;;;;17.01;87.12;99305.73;109211;1273;138405;-60
2022/07/22 04:34:14;;;;;;;7.40;5.80;;;;;;;17.06;87.19;99302.53;109443;1273;22431;-60
2022/07/22 04:36:41;;;;;;;6.90;6.20;;;;;;;17.11;87.07;99305.08;109212;1273;138034;-60
2022/07/22 04:39:08;;;;;;;6.20;5.30;;;;;;;17.16;86.75;99311.02;109414;1273;22506;-61
2022/07/22 04:41:36;;;;;;;8.50;6.50;;;;;;;17.18;86.37;99310.41;109365;1273;22490;-62
2022/07/22 04:44:03;;;;;;;5.90;5.30;;;;;;;17.17;86.07;99309.66;109152;1274;138177;-61
2022/07/22 04:46:31;;;;;;;8.30;6.00;;;;;;;17.19;86.14;99310.67;109434;1273;22404;-61
2022/07/22 04:48:58;;;;;;;10.20;5.90;;;;;;;17.22;86.19;99313.88;109247;1273;139213;-61
2022/07/22 04:51:26;;;;;;;8.50;5.60;;;;;;;17.25;86.06;99313.20;109353;1273;22449;-62
2022/07/22 04:53:59;;;;;;;6.80;5.40;;;;;;;17.31;86.07;99317.77;109376;1273;139042;-61
2022/07/22 04:56:26;;;;;;;8.20;5.30;;;;;;;17.38;85.97;99320.92;107080;1276;22591;-61
2022/07/22 04:58:53;;;;;;;6.50;5.50;;;;;;;17.46;85.72;99318.50;105084;1274;23229;-59
2022/07/22 05:01:22;;;;;;;8.30;5.80;;;;;;;17.52;85.41;99317.83;109275;1273;138743;-60
2022/07/22 05:03:50;;;;;;;6.50;5.30;;;;;;;17.59;85.29;99316.27;109261;1271;22442;-60
2022/07/22 05:06:18;;;;;;;14.80;6.10;;;;;;;17.66;85.07;99316.60;109153;1274;138492;-60
2022/07/22 05:08:45;;;;;;;9.60;5.20;;;;;;;17.73;84.79;99315.63;109463;1273;22399;-60
2022/07/22 05:11:12;;;;;;;6.30;4.70;;;;;;;17.80;84.50;99312.98;109462;1273;23219;-60
2022/07/22 05:13:39;;;;;;;7.00;4.80;;;;;;;17.89;83.89;99312.38;109157;1273;138979;-61
2022/07/22 05:16:06;;;;;;;6.00;4.60;;;;;;;17.99;83.60;99310.21;109283;1273;23103;-60
2022/07/22 05:18:34;;;;;;;5.50;4.30;;;;;;;18.11;82.85;99314.14;109205;1273;140114;-60
2022/07/22 05:21:02;;;;;;;5.70;4.60;;;;;;;18.23;82.39;99315.98;109338;1273;23226;-60
2022/07/22 05:23:29;;;;;;;5.20;4.60;;;;;;;18.40;81.62;99323.21;109466;1273;22636;-61
2022/07/22 05:25:56;;;;;;;4.70;4.20;;;;;;;18.62;80.77;99322.68;109261;1274;140250;-60
2022/07/22 05:28:23;;;;;;;7.60;4.60;;;;;;;18.91;79.80;99324.95;109273;1274;22651;-60
2022/07/22 05:30:50;;;;;;;5.10;4.00;;;;;;;19.24;78.48;99319.70;109283;1273;138157;-60
2022/07/22 05:33:17;;;;;;;8.80;4.60;;;;;;;19.63;77.37;99316.75;109366;1274;22707;-60
2022/07/22 05:35:56;;;;;;;4.50;4.10;;;;;;;20.07;75.48;99315.88;109263;1273;140347;-60
2022/07/22 05:38:26;;;;;;;5.10;4.20;;;;;;;20.47;73.84;99315.59;109212;1274;22450;-60
2022/07/22 05:40:53;;;;;;;6.20;4.20;;;;;;;20.83;71.95;99315.89;109206;1273;23674;-61
2022/07/22 05:43:20;;;;;;;5.70;4.40;;;;;;;21.17;70.73;99317.89;109223;1273;139459;-60
2022/07/22 05:45:47;;;;;;;5.00;4.40;;;;;;;21.49;69.39;99324.88;109352;1274;23315;-61
2022/07/22 05:48:14;;;;;;;7.80;3.60;;;;;;;21.79;68.08;99329.65;109110;1273;138973;-60
2022/07/22 05:50:40;;;;;;;8.20;4.00;;;;;;;22.05;66.64;99323.15;109413;1273;23309;-60
2022/07/22 05:53:07;;;;;;;6.60;4.10;;;;;;;22.26;65.52;99326.08;109334;1272;22409;-60
2022/07/22 05:55:34;;;;;;;4.40;3.50;;;;;;;22.44;65.31;99322.44;109135;1274;137556;-60
2022/07/22 05:58:01;;;;;;;4.50;3.20;;;;;;;22.68;64.43;99325.77;109403;1273;22460;-60
2022/07/22 06:00:28;;;;;;;4.10;3.20;;;;;;;22.90;63.03;99324.83;109340;1273;139178;-61
2022/07/22 06:02:55;;;;;;;6.30;3.30;;;;;;;23.01;61.96;99316.95;109297;1273;23387;-61
2022/07/22 06:05:22;;;;;;;3.50;2.90;;;;;;;23.09;61.74;99315.23;109116;1274;22469;-62
2022/07/22 06:08:08;;;;;;;5.70;3.20;;;;;;;23.13;60.87;99317.67;109110;1274;137670;-62
2022/07/22 06:10:47;;;;;;;4.20;2.80;;;;;;;23.10;60.85;99318.98;109443;1273;23769;-61
2022/07/22 06:13:14;;;;;;;3.00;2.50;;;;;;;22.99;59.98;99319.89;109309;1273;138387;-60
2022/07/22 06:15:41;;;;;;;4.60;2.30;;;;;;;22.77;59.09;99314.44;109341;1273;22469;-61
2022/07/22 06:18:08;;;;;;;3.70;2.30;;;;;;;22.54;59.00;99314.02;109331;1273;138749;-61
2022/07/22 06:20:35;;;;;;;3.90;2.60;;;;;;;22.32;59.72;99320.20;109285;1273;22476;-60
2022/07/22 06:23:02;;;;;;;4.20;2.00;;;;;;;22.13;60.08;99316.81;109365;1273;22436;-60
2022/07/22 06:25:29;;;;;;;3.90;2.30;;;;;;;21.98;60.53;99322.61;108623;1273;138747;-60
2022/07/22 06:28:21;;;;;;;4.20;2.40;;;;;;;21.85;61.39;99321.15;105107;1274;22600;-60
2022/07/22 06:30:48;;;;;;;11.00;2.10;;;;;;;21.78;61.08;99319.48;104851;1273;138302;-60
2022/07/22 06:33:16;;;;;;;4.70;2.50;;;;;;;21.69;60.81;99319.43;105018;1274;25440;-59
2022/07/22 06:35:43;;;;;;;2.90;2.10;;;;;;;21.60;60.59;99319.96;105138;1274;22592;-59
2022/07/22 06:38:10;;;;;;;5.20;2.50;;;;;;;21.52;60.70;99321.36;109401;1271;22445;-60
2022/07/22 06:41:17;;;;;;;3.10;2.40;;;;;;;21.42;61.03;99315.52;109479;1273;22461;-60
2022/07/22 06:44:10;;;;;;;3.80;2.60;;;;;;;21.37;61.05;99312.31;109040;1273;22462;-61
2022/07/22 06:46:54;;;;;;;4.10;2.20;;;;;;;21.39;60.65;99316.51;109281;1273;22456;-60
2022/07/22 06:49:22;;;;;;;5.90;2.10;;;;;;;21.42;60.52;99320.42;109147;1274;138840;-61
2022/07/22 06:51:50;;;;;;;3.50;1.70;;;;;;;21.43;59.63;99314.74;109279;1273;22475;-61
2022/07/22 06:54:17;;;;;;;2.70;2.00;;;;;;;21.45;59.16;99319.83;109236;1273;139701;-60
2022/07/22 06:56:44;;;;;;;6.90;2.40;;;;;;;21.43;58.71;99318.95;109390;1273;23574;-61
2022/07/22 06:59:15;;;;;;;3.50;2.20;;;;;;;21.45;58.54;99321.33;109430;1273;22483;-60
2022/07/22 07:01:42;;;;;;;4.90;1.70;;;;;;;21.46;58.37;99331.42;109238;1273;138961;-61
2022/07/22 07:04:11;;;;;;;3.10;1.70;;;;;;;21.46;57.80;99334.79;109403;1272;22462;-61
2022/07/22 07:06:38;;;;;;;2.40;1.70;;;;;;;21.48;56.92;99336.05;106642;1273;139304;-60
2022/07/22 07:09:34;;;;;;;3.60;1.70;;;;;;;21.48;56.81;99341.42;104878;1274;24231;-60
2022/07/22 07:12:25;;;;;;;2.60;2.10;;;;;;;21.45;57.02;99337.98;105009;1273;137617;-60
2022/07/22 07:15:12;;;;;;;2.40;2.20;;;;;;;21.45;57.56;99334.95;105029;1274;24233;-60
2022/07/22 07:17:52;;;;;;;3.70;1.90;;;;;;;21.44;57.96;99335.09;104843;1274;138254;-60
2022/07/22 07:20:19;;;;;;;2.80;1.70;;;;;;;21.46;57.49;99341.24;109392;1273;22450;-61
2022/07/22 07:22:46;;;;;;;2.00;1.70;;;;;;;21.47;56.89;99341.95;109433;1273;22563;-61
2022/07/22 07:25:13;;;;;;;2.60;1.90;;;;;;;21.49;57.22;99334.10;109272;1273;139392;-61
2022/07/22 07:27:50;;;;;;;2.90;2.20;;;;;;;21.54;57.25;99339.04;109345;1273;22501;-60
2022/07/22 07:30:18;;;;;;;3.00;2.00;;;;;;;21.59;57.59;99337.48;109260;1273;140013;-59
2022/07/22 07:32:45;;;;;;;2.80;1.50;;;;;;;21.63;56.93;99334.81;109263;1273;23211;-59
2022/07/22 07:35:12;;;;;;;4.60;1.60;;;;;;;21.67;56.03;99340.59;109238;1274;24523;-59
2022/07/22 07:37:39;;;;;;;2.30;1.70;;;;;;;21.72;55.10;99339.75;105094;1273;139220;-60
2022/07/22 07:40:06;;;;;;;2.00;1.70;;;;;;;21.72;55.15;99341.19;104930;1274;22555;-60
2022/07/22 07:42:33;;;;;;;1.80;1.40;;;;;;;21.72;54.38;99346.73;109334;1273;137727;-61
2022/07/22 07:45:00;;;;;;;1.80;1.60;;;;;;;21.73;54.53;99347.97;109406;1273;22470;-61
2022/07/22 07:47:27;;;;;;;4.20;1.60;;;;;;;21.74;54.66;99343.65;109416;1273;22435;-60
2022/07/22 07:49:54;;;;;;;2.90;1.60;;;;;;;21.78;54.51;99346.42;109311;1272;138707;-61
2022/07/22 07:52:21;;;;;;;2.30;1.70;;;;;;;21.84;55.22;99351.25;109382;1273;22709;-61
2022/07/22 07:54:49;;;;;;;4.60;1.60;;;;;;;21.92;54.90;99352.04;109216;1273;138105;-60
2022/07/22 07:57:36;;;;;;;5.60;1.40;;;;;;;22.00;53.13;99354.67;109346;1273;23240;-61
2022/07/22 08:00:09;;;;;;;4.40;1.50;;;;;;;22.03;52.22;99358.04;109300;1273;138191;-61
2022/07/22 08:02:40;;;;;;;2.50;1.60;;;;;;;22.00;52.34;99353.48;109358;1274;22460;-61
2022/07/22 08:05:09;;;;;;;3.10;1.60;;;;;;;22.01;53.06;99354.06;109317;1273;23423;-59
2022/07/22 08:07:37;;;;;;;4.10;1.20;;;;;;;22.05;53.03;99358.45;109240;1273;138028;-60
2022/07/22 08:10:05;;;;;;;5.50;1.50;;;;;;;22.10;52.15;99364.23;109254;1273;22279;-60
2022/07/22 08:13:14;;;;;;;3.40;1.40;;;;;;;22.10;51.57;99364.10;109340;1273;138217;-61
2022/07/22 08:15:41;;;;;;;4.70;1.70;;;;;;;22.09;52.05;99367.61;109443;1273;22615;-60
2022/07/22 08:18:15;;;;;;;2.30;1.80;;;;;;;22.07;52.41;99366.84;109261;1273;137835;-60
2022/07/22 08:20:42;;;;;;;2.80;1.50;;;;;;;22.06;52.71;99368.72;108790;1274;794694;-60
2022/07/22 08:24:14;;;;;;;3.30;2.10;;;;;;;22.09;52.67;99370.57;101888;1310;545732;-60
2022/07/22 08:26:42;;;;;;;1.70;1.60;;;;;;;22.07;53.33;99370.40;103862;1289;23002;-60
2022/07/22 08:29:09;;;;;;;4.10;1.90;;;;;;;22.09;53.05;99367.64;103664;1289;22576;-59
2022/07/22 08:31:36;;;;;;;3.90;1.90;;;;;;;22.15;52.33;99367.30;103520;1289;137954;-59
2022/07/22 08:34:08;;;;;;;2.60;1.60;;;;;;;22.18;52.14;99365.45;108028;1288;22474;-61
2022/07/22 08:36:35;;;;;;;5.10;1.80;;;;;;;22.19;52.96;99372.15;109062;1277;136823;-61
2022/07/22 08:39:02;;;;;;;4.10;2.00;;;;;;;22.23;52.46;99375.21;109104;1274;286790;-61
2022/07/22 08:41:35;;;;;;;2.40;1.50;;;;;;;22.26;51.37;99376.16;109313;1275;22501;-60
2022/07/22 08:44:03;;;;;;;2.80;1.60;;;;;;;22.25;51.32;99373.52;109190;1276;138522;-61
2022/07/22 08:46:30;;;;;;;2.30;1.60;;;;;;;22.25;51.77;99374.89;109184;1274;22458;-61
2022/07/22 08:49:32;;;;;;;3.40;1.50;;;;;;;22.29;52.13;99368.83;109002;1274;137919;-62
2022/07/22 08:52:28;;;;;;;2.30;1.60;;;;;;;22.31;52.09;99361.70;109119;1276;22464;-61
2022/07/22 08:54:55;;;;;;;3.20;1.80;;;;;;;22.37;51.79;99369.61;109207;1274;137983;-61
2022/07/22 08:57:22;;;;;;;2.00;1.50;;;;;;;22.42;51.68;99371.16;109365;1274;23221;-61
2022/07/22 08:59:53;;;;;;;2.80;1.60;;;;;;;22.47;52.25;99372.02;109244;1274;138340;-61
2022/07/22 09:02:21;;;;;;;3.40;1.70;;;;;;;22.54;52.48;99375.19;109265;1274;24310;-61
2022/07/22 09:04:59;;;;;;;3.10;1.90;;;;;;;22.64;51.44;99378.73;109311;1274;22419;-59
2022/07/22 09:07:47;;;;;;;2.10;1.50;;;;;;;22.72;49.97;99382.25;109157;1274;137204;-60
2022/07/22 09:10:34;;;;;;;2.40;1.50;;;;;;;22.72;49.63;99369.90;109344;1274;22446;-59
2022/07/22 09:13:14;;;;;;;2.10;1.80;;;;;;;22.75;48.67;99370.64;109137;1275;137011;-60
2022/07/22 09:15:49;;;;;;;2.50;1.50;;;;;;;22.77;48.43;99376.39;109223;1276;22637;-60
2022/07/22 09:18:52;;;;;;;2.80;1.40;;;;;;;22.78;48.50;99373.80;109234;1276;137220;-60
2022/07/22 09:21:45;;;;;;;1.60;1.50;;;;;;;22.81;48.21;99374.27;109228;1276;22595;-60
2022/07/22 09:24:31;;;;;;;2.50;1.40;;;;;;;22.84;47.38;99385.00;109178;1277;138050;-60
2022/07/22 09:27:25;;;;;;;2.60;1.50;;;;;;;22.85;47.36;99384.04;109055;1276;22574;-60
2022/07/22 09:30:19;;;;;;;1.30;1.10;;;;;;;22.84;47.50;99378.69;109212;1276;137510;-60
2022/07/22 09:32:54;;;;;;;2.40;1.90;;;;;;;22.85;47.91;99384.73;109262;1276;22437;-61
2022/07/22 09:35:35;;;;;;;1.70;1.30;;;;;;;22.88;47.90;99387.23;109069;1276;22461;-61
2022/07/22 09:38:07;;;;;;;1.90;1.40;;;;;;;22.89;47.23;99389.66;109213;1274;137488;-61
2022/07/22 09:40:39;;;;;;;4.70;1.20;;;;;;;22.89;48.05;99385.88;109217;1274;22280;-61
2022/07/22 09:43:12;;;;;;;2.50;1.60;;;;;;;22.92;48.04;99388.27;109172;1274;138836;-61
2022/07/22 09:45:59;;;;;;;3.40;1.30;;;;;;;22.98;47.79;99384.23;108356;1277;22577;-61
2022/07/22 09:48:49;;;;;;;1.70;1.60;;;;;;;23.04;48.40;99386.59;104735;1277;138189;-61
2022/07/22 09:51:48;;;;;;;2.30;1.70;;;;;;;23.09;48.44;99382.17;104567;1277;24390;-60
2022/07/22 09:54:15;;;;;;;3.10;1.70;;;;;;;23.14;47.37;99377.27;104984;1274;139193;-61
2022/07/22 09:56:43;;;;;;;1.40;1.30;;;;;;;23.18;47.52;99380.73;105023;1277;22567;-61
2022/07/22 09:59:10;;;;;;;4.80;1.30;;;;;;;23.21;47.94;99388.22;104917;1274;22556;-61
2022/07/22 10:01:39;;;;;;;0.90;0.90;;;;;;;23.26;47.60;99390.70;109175;1274;137751;-61
2022/07/22 10:04:07;;;;;;;2.80;2.00;;;;;;;23.32;46.92;99392.73;109303;1274;22427;-61
2022/07/22 10:06:34;;;;;;;5.80;1.40;;;;;;;23.34;46.93;99389.29;109067;1274;137152;-61
2022/07/22 10:09:01;;;;;;;6.30;1.50;;;;;;;23.36;47.73;99383.82;109254;1274;22361;-61
2022/07/22 10:11:36;;;;;;;5.40;1.50;;;;;;;23.43;47.00;99391.09;109151;1274;22731;-61
2022/07/22 10:14:03;;;;;;;3.90;1.50;;;;;;;23.47;46.65;99388.01;109204;1274;137418;-62
2022/07/22 10:16:31;;;;;;;7.40;1.50;;;;;;;23.50;46.90;99393.27;109375;1274;23945;-61
2022/07/22 10:18:59;;;;;;;6.00;2.40;;;;;;;23.55;46.27;99392.17;109122;1276;139530;-61
2022/07/22 10:21:33;;;;;;;5.40;1.70;;;;;;;23.57;46.34;99390.48;109110;1277;22420;-61
2022/07/22 10:24:08;;;;;;;1.30;1.20;;;;;;;23.59;46.34;99389.84;109162;1274;137230;-61
2022/07/22 10:26:46;;;;;;;6.00;1.50;;;;;;;23.60;45.97;99394.59;109162;1276;22435;-61
2022/07/22 10:29:39;;;;;;;2.70;1.70;;;;;;;23.63;46.38;99396.83;109238;1274;22494;-61
2022/07/22 10:32:15;;;;;;;3.40;1.40;;;;;;;23.71;46.74;99396.09;109242;1274;138148;-61
2022/07/22 10:35:06;;;;;;;3.60;1.50;;;;;;;23.77;45.98;99396.31;109225;1276;22551;-62
2022/07/22 10:37:33;;;;;;;3.20;1.30;;;;;;;23.79;45.53;99397.02;109111;1277;137477;-61
2022/07/22 10:40:23;;;;;;;2.30;1.30;;;;;;;23.78;45.24;99400.79;109321;1274;22533;-61
2022/07/22 10:43:08;;;;;;;3.90;1.60;;;;;;;23.73;45.46;99399.10;109249;1274;139125;-62
2022/07/22 10:45:46;;;;;;;2.80;1.40;;;;;;;23.72;46.17;99395.98;109300;1275;22507;-58
2022/07/22 10:48:15;;;;;;;2.10;1.50;;;;;;;23.74;46.42;99403.38;109113;1276;138079;-58
2022/07/22 10:50:50;;;;;;;1.60;1.40;;;;;;;23.77;46.36;99401.94;109369;1274;22406;-58
2022/07/22 10:53:24;;;;;;;2.50;1.20;;;;;;;23.77;46.57;99398.23;109278;1274;22460;-58
2022/07/22 10:56:05;;;;;;;2.00;1.40;;;;;;;23.78;46.01;99392.69;109199;1276;138839;-58
2022/07/22 10:58:32;;;;;;;2.00;1.40;;;;;;;23.77;46.03;99401.80;109383;1276;23437;-57
2022/07/22 11:01:01;;;;;;;6.40;1.70;;;;;;;23.79;46.02;99399.09;109131;1276;138303;-58
2022/07/22 11:03:32;;;;;;;5.50;1.90;;;;;;;23.81;46.41;99404.70;109306;1277;22271;-57
2022/07/22 11:06:17;;;;;;;3.30;1.90;;;;;;;23.85;46.57;99406.02;109163;1274;138492;-58
2022/07/22 11:08:46;;;;;;;1.30;1.20;;;;;;;23.90;46.12;99400.21;109349;1274;22473;-59
2022/07/22 11:11:13;;;;;;;4.30;1.70;;;;;;;23.90;46.80;99403.80;109239;1276;22471;-58
2022/07/22 11:13:43;;;;;;;3.50;1.70;;;;;;;23.93;46.42;99406.95;109156;1276;137074;-59
2022/07/22 11:16:18;;;;;;;1.80;1.40;;;;;;;23.97;46.10;99401.89;109365;1274;22465;-58
2022/07/22 11:18:54;;;;;;;2.40;1.50;;;;;;;24.01;45.55;99399.67;109161;1274;139068;-57
2022/07/22 11:21:22;;;;;;;1.40;1.30;;;;;;;24.04;45.74;99398.91;109315;1274;23586;-56
2022/07/22 11:23:52;;;;;;;5.00;1.50;;;;;;;24.07;45.01;99399.80;109237;1274;137421;-57
2022/07/22 11:26:24;;;;;;;3.10;1.40;;;;;;;24.07;45.12;99396.95;109302;1276;22474;-58
2022/07/22 11:28:51;;;;;;;4.80;1.60;;;;;;;24.06;45.19;99398.02;109161;1276;22523;-58
2022/07/22 11:31:18;;;;;;;2.10;1.40;;;;;;;24.07;45.21;99409.42;109247;1274;137880;-58
2022/07/22 11:33:45;;;;;;;1.90;1.40;;;;;;;24.10;45.31;99402.89;109356;1276;22483;-58
2022/07/22 11:36:12;;;;;;;1.80;1.20;;;;;;;24.13;44.79;99394.48;109236;1274;138429;-57
2022/07/22 11:38:47;;;;;;;3.10;1.40;;;;;;;24.15;44.51;99397.17;109361;1274;22497;-58